Time;durP1;ratioP1;P1;durP2;ratioP2;P2;SDS_P1;SDS_P2;PMS_P1;PMS_P2;Temp;Humidity;BMP_temperature;BMP_pressure;BME280_temperature;BME280_humidity;BME280_pressure;Samples;Min_cycle;Max_cycle;Signal;HPM_P1;HPM_P2
2023/05/13 00:01:24;;;;;;;22.10;11.57;;;;;;;13.99;100.00;101857.44;5086344;28;20161;-77
2023/05/13 00:03:50;;;;;;;21.27;11.48;;;;;;;14.03;100.00;101853.91;5083485;28;20043;-66
2023/05/13 00:06:15;;;;;;;20.88;11.60;;;;;;;14.01;100.00;101851.25;5084543;28;20028;-67
2023/05/13 00:08:41;;;;;;;20.92;11.20;;;;;;;13.98;100.00;101850.31;5084389;28;20121;-67
2023/05/13 00:11:06;;;;;;;21.55;11.68;;;;;;;13.93;100.00;101847.66;5065248;28;20028;-67
2023/05/13 00:13:32;;;;;;;22.05;11.70;;;;;;;13.94;100.00;101847.66;5085948;28;20028;-67
2023/05/13 00:15:57;;;;;;;21.65;11.50;;;;;;;13.86;100.00;101846.75;5082607;28;20386;-67
2023/05/13 00:18:23;;;;;;;21.08;11.82;;;;;;;13.83;100.00;101843.16;5085463;28;20034;-67
2023/05/13 00:20:48;;;;;;;22.10;11.75;;;;;;;13.76;100.00;101844.88;5076032;28;20040;-67
2023/05/13 00:23:13;;;;;;;22.55;11.95;;;;;;;13.68;100.00;101842.16;5084416;28;20126;-66
2023/05/13 00:25:40;;;;;;;21.92;11.45;;;;;;;13.62;100.00;101843.91;5081446;28;20032;-68
2023/05/13 00:28:06;;;;;;;22.80;11.20;;;;;;;13.62;100.00;101841.25;5076300;28;20029;-68
2023/05/13 00:30:31;;;;;;;21.27;11.70;;;;;;;13.56;100.00;101842.09;5081947;28;20033;-66
2023/05/13 00:32:57;;;;;;;21.73;11.80;;;;;;;13.52;100.00;101840.28;5084413;28;20028;-65
2023/05/13 00:35:22;;;;;;;21.13;11.45;;;;;;;13.46;100.00;101840.25;5083020;28;20022;-67
2023/05/13 00:37:48;;;;;;;20.80;11.65;;;;;;;13.39;100.00;101833.97;5083370;28;20478;-67
2023/05/13 00:40:20;;;;;;;21.23;11.60;;;;;;;13.32;100.00;101837.41;5084918;28;20920;-67
2023/05/13 00:42:46;;;;;;;22.25;12.00;;;;;;;13.33;100.00;101839.19;5082662;28;20051;-67
2023/05/13 00:45:11;;;;;;;22.10;11.60;;;;;;;13.25;100.00;101848.00;5085100;28;20028;-67
2023/05/13 00:47:38;;;;;;;22.10;11.63;;;;;;;13.27;100.00;101850.66;5081698;28;20560;-66
2023/05/13 00:50:04;;;;;;;20.90;10.93;;;;;;;13.23;100.00;101851.50;5085090;28;20035;-66
2023/05/13 00:52:30;;;;;;;21.58;11.32;;;;;;;13.19;100.00;101850.59;5082351;28;20044;-66
2023/05/13 00:54:57;;;;;;;21.95;11.20;;;;;;;13.21;100.00;101846.19;5083853;28;20017;-66
2023/05/13 00:57:22;;;;;;;21.65;10.80;;;;;;;13.20;100.00;101848.81;5083164;28;20032;-68
2023/05/13 00:59:47;;;;;;;20.88;10.70;;;;;;;13.17;100.00;101848.78;5083067;28;20486;-67
2023/05/13 01:02:26;;;;;;;21.80;11.15;;;;;;;13.12;100.00;101845.19;5084420;28;20375;-68
2023/05/13 01:05:13;;;;;;;21.67;10.50;;;;;;;13.07;100.00;101848.69;5082959;28;20056;-67
2023/05/13 01:07:59;;;;;;;21.45;10.55;;;;;;;13.06;100.00;101853.97;5077976;28;20514;-66
2023/05/13 01:10:48;;;;;;;20.98;10.63;;;;;;;13.04;100.00;101847.78;5082434;28;20028;-67
2023/05/13 01:13:19;;;;;;;21.55;10.60;;;;;;;13.03;100.00;101846.91;5079015;28;20027;-67
2023/05/13 01:15:51;;;;;;;20.70;10.60;;;;;;;12.96;100.00;101847.72;5083894;28;20043;-68
2023/05/13 01:18:27;;;;;;;20.48;10.43;;;;;;;12.95;100.00;101850.34;5082378;28;20078;-66
2023/05/13 01:20:53;;;;;;;20.98;11.18;;;;;;;12.85;100.00;101844.91;5082969;28;20032;-66
2023/05/13 01:23:18;;;;;;;20.48;10.88;;;;;;;12.80;100.00;101844.00;5082269;28;20467;-68
2023/05/13 01:25:44;;;;;;;20.92;11.00;;;;;;;12.77;100.00;101838.66;5084032;28;20028;-67
2023/05/13 01:28:10;;;;;;;22.02;11.02;;;;;;;12.70;100.00;101837.69;5063327;28;20025;-73
2023/05/13 01:30:36;;;;;;;21.02;10.80;;;;;;;12.64;100.00;101847.31;5076913;28;20025;-66
2023/05/13 01:33:02;;;;;;;20.98;11.02;;;;;;;12.59;100.00;101833.13;5084070;28;20032;-71
2023/05/13 01:35:28;;;;;;;22.17;10.88;;;;;;;12.58;100.00;101841.97;5064192;28;20027;-65
2023/05/13 01:37:56;;;;;;;21.45;10.85;;;;;;;12.54;100.00;101844.56;5083038;28;20029;-70
2023/05/13 01:40:22;;;;;;;22.67;11.07;;;;;;;12.46;100.00;101848.00;5082873;28;20027;-70
2023/05/13 01:42:47;;;;;;;21.30;11.23;;;;;;;12.40;100.00;101850.59;5063764;28;20047;-71
2023/05/13 01:45:13;;;;;;;21.70;11.15;;;;;;;12.39;100.00;101847.03;5083978;28;20036;-65
2023/05/13 01:47:38;;;;;;;20.33;11.05;;;;;;;12.31;100.00;101841.63;5080087;28;20391;-71
2023/05/13 01:50:04;;;;;;;21.52;11.40;;;;;;;12.31;100.00;101848.72;5084097;28;20028;-66
2023/05/13 01:52:30;;;;;;;21.20;11.45;;;;;;;12.22;100.00;101844.19;5081324;28;20132;-68
2023/05/13 01:54:55;;;;;;;21.02;11.55;;;;;;;12.23;100.00;101845.06;5076779;28;20016;-67
2023/05/13 01:57:21;;;;;;;21.60;11.48;;;;;;;12.19;100.00;101845.03;5082210;28;20056;-65
2023/05/13 01:59:46;;;;;;;21.17;11.48;;;;;;;12.08;100.00;101843.97;5083158;28;20024;-65
2023/05/13 02:02:11;;;;;;;21.30;11.35;;;;;;;12.11;100.00;101841.38;5081305;28;20391;-68
2023/05/13 02:04:36;;;;;;;21.58;11.57;;;;;;;12.14;100.00;101843.16;5084174;28;20369;-68
2023/05/13 02:07:02;;;;;;;22.52;11.40;;;;;;;12.08;100.00;101849.28;5081043;28;20068;-66
2023/05/13 02:09:27;;;;;;;22.85;12.07;;;;;;;12.05;100.00;101853.66;5083211;28;20036;-72
2023/05/13 02:11:53;;;;;;;22.08;11.60;;;;;;;12.11;100.00;101853.72;5082301;28;20028;-70
2023/05/13 02:14:19;;;;;;;21.15;11.45;;;;;;;12.05;100.00;101851.00;5081963;28;20029;-69
2023/05/13 02:16:44;;;;;;;23.58;11.68;;;;;;;11.98;100.00;101844.72;5078525;28;20020;-67
2023/05/13 02:19:10;;;;;;;22.50;11.73;;;;;;;11.95;100.00;101847.31;5074090;28;20028;-66
2023/05/13 02:21:35;;;;;;;21.05;12.35;;;;;;;11.89;100.00;101847.22;5082836;28;20033;-67
2023/05/13 02:24:01;;;;;;;21.77;12.02;;;;;;;11.85;100.00;101848.91;5079925;28;20495;-67
2023/05/13 02:26:26;;;;;;;23.80;12.70;;;;;;;11.76;100.00;101848.78;5083060;28;20044;-66
2023/05/13 02:28:51;;;;;;;21.75;11.88;;;;;;;11.69;100.00;101853.06;5081204;28;20036;-66
2023/05/13 02:31:17;;;;;;;21.92;12.77;;;;;;;11.67;100.00;101854.81;5083665;28;20028;-66
2023/05/13 02:33:42;;;;;;;21.80;12.55;;;;;;;11.65;100.00;101853.91;5080611;28;20035;-66
2023/05/13 02:36:08;;;;;;;22.25;12.52;;;;;;;11.62;100.00;101851.19;5083108;28;20364;-66
2023/05/13 02:38:33;;;;;;;23.42;12.60;;;;;;;11.59;100.00;101853.78;5081971;28;20046;-67
2023/05/13 02:41:00;;;;;;;22.73;12.82;;;;;;;11.55;100.00;101857.25;5081495;28;20145;-67
2023/05/13 02:43:26;;;;;;;24.15;12.50;;;;;;;11.49;100.00;101850.13;5083096;28;20039;-68
2023/05/13 02:45:52;;;;;;;23.08;13.07;;;;;;;11.50;100.00;101851.88;5080592;28;20032;-67
2023/05/13 02:48:17;;;;;;;22.48;12.52;;;;;;;11.42;100.00;101849.13;5083537;28;20028;-67
2023/05/13 02:50:42;;;;;;;22.48;13.02;;;;;;;11.34;100.00;101841.06;5080640;28;20025;-67
2023/05/13 02:53:08;;;;;;;23.42;13.00;;;;;;;11.33;100.00;101841.91;5064732;28;20505;-66
2023/05/13 02:55:33;;;;;;;21.67;12.80;;;;;;;11.32;100.00;101844.53;5081728;28;20123;-66
2023/05/13 02:57:58;;;;;;;23.15;12.43;;;;;;;11.27;100.00;101835.59;5083036;28;20067;-66
2023/05/13 03:00:24;;;;;;;22.25;12.98;;;;;;;11.22;100.00;101840.81;5086879;28;20470;-67
2023/05/13 03:02:49;;;;;;;23.08;13.10;;;;;;;11.23;100.00;101841.75;5083908;28;20479;-68
2023/05/13 03:05:15;;;;;;;22.17;13.10;;;;;;;11.20;100.00;101841.66;5087306;28;20111;-68
2023/05/13 03:07:40;;;;;;;22.48;13.25;;;;;;;11.14;100.00;101843.34;5084047;28;20051;-66
2023/05/13 03:10:06;;;;;;;23.15;12.73;;;;;;;11.07;100.00;101841.47;5086113;28;20032;-67
2023/05/13 03:12:32;;;;;;;22.00;12.95;;;;;;;11.07;100.00;101835.28;5085224;28;20492;-65
2023/05/13 03:14:58;;;;;;;23.25;13.00;;;;;;;10.97;100.00;101839.50;5084650;28;20029;-65
2023/05/13 03:17:24;;;;;;;22.67;13.02;;;;;;;10.94;100.00;101839.44;5086952;28;20032;-65
2023/05/13 03:19:49;;;;;;;23.08;13.02;;;;;;;10.92;100.00;101838.50;5083216;28;20116;-66
2023/05/13 03:22:15;;;;;;;22.55;12.77;;;;;;;10.91;100.00;101837.63;5079243;28;20513;-65
2023/05/13 03:24:41;;;;;;;21.65;12.75;;;;;;;10.87;100.00;101842.84;5086430;28;20085;-68
2023/05/13 03:27:07;;;;;;;22.83;13.20;;;;;;;10.84;100.00;101846.31;5084565;28;20064;-67
2023/05/13 03:29:32;;;;;;;24.52;12.63;;;;;;;10.84;100.00;101850.72;5084954;28;20056;-65
2023/05/13 03:31:57;;;;;;;22.35;12.68;;;;;;;10.78;100.00;101855.03;5085698;28;20063;-66
2023/05/13 03:34:23;;;;;;;22.83;13.25;;;;;;;10.77;100.00;101852.34;5083451;28;20024;-65
2023/05/13 03:36:48;;;;;;;22.38;13.15;;;;;;;10.76;100.00;101851.47;5087031;28;20440;-68
2023/05/13 03:39:15;;;;;;;22.52;13.23;;;;;;;10.73;100.00;101850.50;5065654;28;20024;-71
2023/05/13 03:41:40;;;;;;;22.95;13.18;;;;;;;10.72;100.00;101852.25;5085672;28;20048;-66
2023/05/13 03:44:06;;;;;;;22.98;13.65;;;;;;;10.64;100.00;101859.13;5084402;28;20632;-66
2023/05/13 03:46:32;;;;;;;23.80;13.63;;;;;;;10.60;100.00;101857.28;5084395;28;20035;-66
2023/05/13 03:48:58;;;;;;;23.02;13.23;;;;;;;10.54;100.00;101843.94;5085240;28;20065;-65
2023/05/13 03:51:23;;;;;;;22.02;13.23;;;;;;;10.61;100.00;101859.09;5083476;28;20494;-68
2023/05/13 03:53:49;;;;;;;22.98;13.35;;;;;;;10.56;100.00;101853.72;5086337;28;20378;-66
2023/05/13 03:56:14;;;;;;;23.20;13.85;;;;;;;10.53;100.00;101868.59;5082838;28;20024;-67
2023/05/13 03:58:40;;;;;;;22.95;13.43;;;;;;;10.53;100.00;101863.31;5085583;28;20430;-68
2023/05/13 04:01:06;;;;;;;23.05;13.88;;;;;;;10.46;100.00;101864.94;5083974;28;20020;-66
2023/05/13 04:03:33;;;;;;;22.65;13.93;;;;;;;10.46;100.00;101864.94;5084167;28;20459;-67
2023/05/13 04:05:58;;;;;;;23.60;13.90;;;;;;;10.43;100.00;101864.88;5086785;28;20105;-66
2023/05/13 04:08:24;;;;;;;23.50;13.82;;;;;;;10.39;100.00;101866.56;5090183;28;20531;-66
2023/05/13 04:10:49;;;;;;;23.05;13.98;;;;;;;10.43;100.00;101865.78;5092109;28;20024;-68
2023/05/13 04:13:15;;;;;;;23.10;13.90;;;;;;;10.41;100.00;101861.31;5086614;28;20035;-66
2023/05/13 04:15:40;;;;;;;22.70;13.77;;;;;;;10.41;100.00;101864.84;5086720;28;20547;-66
2023/05/13 04:18:06;;;;;;;24.45;14.27;;;;;;;10.38;100.00;101864.81;5083626;28;20028;-67
2023/05/13 04:20:31;;;;;;;23.67;14.40;;;;;;;10.37;100.00;101862.09;5084192;28;20085;-65
2023/05/13 04:22:56;;;;;;;23.88;13.65;;;;;;;10.37;100.00;101865.66;5084943;28;20032;-66
2023/05/13 04:25:22;;;;;;;23.27;14.32;;;;;;;10.37;100.00;101870.94;5082711;28;20394;-67
2023/05/13 04:27:47;;;;;;;24.65;14.25;;;;;;;10.35;100.00;101867.34;5085956;28;20028;-67
2023/05/13 04:30:13;;;;;;;22.92;13.68;;;;;;;10.34;100.00;101870.88;5082354;28;20040;-66
2023/05/13 04:32:38;;;;;;;24.13;14.35;;;;;;;10.41;100.00;101870.16;5084772;28;20028;-66
2023/05/13 04:35:06;;;;;;;24.50;14.20;;;;;;;10.40;100.00;101875.41;5083395;28;20530;-66
2023/05/13 04:37:31;;;;;;;23.48;14.30;;;;;;;10.41;100.00;101872.78;5083330;28;20108;-66
2023/05/13 04:39:56;;;;;;;23.95;14.48;;;;;;;10.41;100.00;101874.53;5084704;28;20115;-67
2023/05/13 04:42:22;;;;;;;23.27;14.88;;;;;;;10.41;100.00;101878.06;5081922;28;20048;-70
2023/05/13 04:44:47;;;;;;;23.25;14.40;;;;;;;10.40;100.00;101884.22;5085334;28;20021;-65
2023/05/13 04:47:12;;;;;;;24.98;14.52;;;;;;;10.42;100.00;101886.88;5082149;28;20036;-67
2023/05/13 04:49:38;;;;;;;23.42;14.25;;;;;;;10.42;100.00;101885.13;5084092;28;20105;-65
2023/05/13 04:52:05;;;;;;;24.67;14.65;;;;;;;10.50;100.00;101882.66;5083220;28;20024;-67
2023/05/13 04:54:31;;;;;;;23.88;14.13;;;;;;;10.55;100.00;101888.03;5083166;28;20115;-67
2023/05/13 04:56:56;;;;;;;23.20;14.13;;;;;;;10.56;100.00;101882.78;5084206;28;20510;-76
2023/05/13 04:59:21;;;;;;;24.90;14.60;;;;;;;10.58;100.00;101882.81;5081983;28;20044;-68
2023/05/13 05:01:47;;;;;;;24.08;13.98;;;;;;;10.64;100.00;101880.28;5085108;28;20433;-68
2023/05/13 05:04:13;;;;;;;22.95;14.27;;;;;;;10.64;100.00;101890.88;5081783;28;20039;-71
2023/05/13 05:06:38;;;;;;;23.40;14.32;;;;;;;10.72;100.00;101893.69;5083906;28;20036;-66
2023/05/13 05:09:04;;;;;;;23.67;14.07;;;;;;;10.73;100.00;101887.53;5082725;28;20035;-66
2023/05/13 05:11:29;;;;;;;22.73;14.15;;;;;;;10.78;100.00;101889.41;5072658;28;20089;-75
2023/05/13 05:13:55;;;;;;;23.35;14.52;;;;;;;10.82;100.00;101893.91;5080031;28;20020;-70
2023/05/13 05:16:20;;;;;;;23.95;14.80;;;;;;;10.84;100.00;101896.56;5083673;28;20467;-66
2023/05/13 05:18:45;;;;;;;23.83;14.48;;;;;;;10.91;100.00;101894.94;5078195;28;20502;-69
2023/05/13 05:21:11;;;;;;;23.33;14.25;;;;;;;10.94;100.00;101908.25;5083189;28;20463;-71
2023/05/13 05:23:37;;;;;;;24.38;14.98;;;;;;;10.96;100.00;101906.50;5081812;28;20439;-67
2023/05/13 05:26:03;;;;;;;23.95;14.15;;;;;;;10.99;100.00;101903.91;5084163;28;20036;-72
2023/05/13 05:28:29;;;;;;;24.02;14.98;;;;;;;11.04;100.00;101904.00;5081299;28;20025;-69
2023/05/13 05:30:54;;;;;;;24.10;15.00;;;;;;;11.11;100.00;101905.91;5084192;28;20374;-72
2023/05/13 05:33:20;;;;;;;24.98;15.02;;;;;;;11.17;100.00;101911.34;5081637;28;20032;-68
2023/05/13 05:35:46;;;;;;;23.98;14.63;;;;;;;11.20;100.00;101911.38;5065234;28;20033;-66
2023/05/13 05:38:11;;;;;;;24.92;15.40;;;;;;;11.28;100.00;101914.16;5082788;28;20052;-67
2023/05/13 05:40:42;;;;;;;24.52;15.65;;;;;;;11.32;100.00;101913.34;5081961;28;20029;-67
2023/05/13 05:43:09;;;;;;;24.40;15.73;;;;;;;11.36;100.00;101920.50;5083442;28;20035;-68
2023/05/13 05:45:39;;;;;;;24.83;16.08;;;;;;;11.40;100.00;101917.06;5081291;28;20032;-66
2023/05/13 05:48:05;;;;;;;24.27;15.85;;;;;;;11.44;100.00;101918.88;5083574;28;20051;-67
2023/05/13 05:50:31;;;;;;;25.15;14.90;;;;;;;11.44;100.00;101916.22;5080835;28;20036;-67
2023/05/13 05:52:58;;;;;;;25.35;16.58;;;;;;;11.42;100.00;101914.44;5076664;28;20029;-67
2023/05/13 05:55:30;;;;;;;24.88;15.80;;;;;;;11.43;100.00;101924.13;5083755;28;20401;-67
2023/05/13 05:57:56;;;;;;;;;;;;;;;11.46;100.00;101922.44;5081443;28;20426;-67
2023/05/13 06:00:21;;;;;;;25.58;16.10;;;;;;;11.47;100.00;101920.69;5084216;28;19916;-66
2023/05/13 06:02:49;;;;;;;25.17;16.42;;;;;;;11.53;100.00;101926.06;5081845;28;20475;-67
2023/05/13 06:05:15;;;;;;;25.15;15.90;;;;;;;11.56;100.00;101918.19;5082679;28;20040;-66
2023/05/13 06:07:41;;;;;;;25.48;16.52;;;;;;;11.60;100.00;101920.03;5082506;28;20032;-68
2023/05/13 06:10:07;;;;;;;24.35;16.20;;;;;;;11.67;100.00;101919.25;5081221;28;20032;-68
2023/05/13 06:12:32;;;;;;;23.77;15.77;;;;;;;11.71;100.00;101928.16;5084025;28;20028;-67
2023/05/13 06:14:58;;;;;;;24.80;16.27;;;;;;;11.76;100.00;101926.47;5078605;28;20027;-67
2023/05/13 06:17:24;;;;;;;25.00;16.38;;;;;;;11.80;100.00;101930.09;5070432;28;20037;-65
2023/05/13 06:19:50;;;;;;;25.23;16.08;;;;;;;11.81;100.00;101930.09;5077554;28;20097;-66
2023/05/13 06:22:16;;;;;;;25.02;16.50;;;;;;;11.83;100.00;101931.00;5080617;28;20442;-66
2023/05/13 06:24:43;;;;;;;24.67;16.60;;;;;;;11.88;100.00;101925.78;5082365;28;20040;-68
2023/05/13 06:27:10;;;;;;;25.50;16.52;;;;;;;11.96;100.00;101932.13;5078878;28;20059;-68
2023/05/13 06:29:35;;;;;;;25.20;17.00;;;;;;;12.05;100.00;101936.69;5082284;28;20091;-67
2023/05/13 06:32:01;;;;;;;26.33;17.33;;;;;;;12.16;100.00;101939.53;5081084;28;20112;-67
2023/05/13 06:34:26;;;;;;;26.35;16.98;;;;;;;12.26;100.00;101935.22;5087525;28;20036;-68
2023/05/13 06:36:51;;;;;;;25.02;16.75;;;;;;;12.26;100.00;101930.84;5084305;28;20430;-67
2023/05/13 06:39:17;;;;;;;24.85;16.38;;;;;;;12.24;100.00;101932.56;5087080;28;20178;-68
2023/05/13 06:41:42;;;;;;;25.60;17.60;;;;;;;12.21;100.00;101933.41;5085206;28;20048;-67
2023/05/13 06:44:08;;;;;;;24.98;17.15;;;;;;;12.23;100.00;101930.75;5085817;28;20107;-68
2023/05/13 06:46:33;;;;;;;30.02;17.42;;;;;;;12.30;100.00;101943.25;5086926;28;20032;-67
2023/05/13 06:48:58;;;;;;;25.70;17.13;;;;;;;12.41;100.00;101935.47;5084540;28;20020;-67
2023/05/13 06:51:26;;;;;;;25.13;16.67;;;;;;;12.51;100.00;101950.63;5087546;28;20024;-67
2023/05/13 06:53:52;;;;;;;24.55;16.40;;;;;;;12.62;100.00;101949.88;5080097;28;20063;-67
2023/05/13 06:56:17;;;;;;;24.42;16.75;;;;;;;12.69;100.00;101944.66;5087019;28;20051;-67
2023/05/13 06:58:42;;;;;;;24.88;16.63;;;;;;;12.78;100.00;101946.56;5084785;28;20030;-68
2023/05/13 07:01:08;;;;;;;25.52;17.17;;;;;;;12.96;100.00;101950.31;5085944;28;20375;-67
2023/05/13 07:03:33;;;;;;;26.23;16.88;;;;;;;13.21;100.00;101938.22;5085899;28;20377;-66
2023/05/13 07:05:59;;;;;;;24.48;16.15;;;;;;;13.42;100.00;101948.19;5084122;28;20059;-66
2023/05/13 07:08:24;;;;;;;24.38;16.05;;;;;;;13.71;100.00;101947.59;5087698;28;20024;-74
2023/05/13 07:10:49;;;;;;;24.92;16.48;;;;;;;13.95;100.00;101947.78;5083352;28;20029;-76
2023/05/13 07:13:16;;;;;;;24.73;15.70;;;;;;;14.04;100.00;101943.44;5086146;28;20036;-67
2023/05/13 07:15:42;;;;;;;24.95;16.70;;;;;;;13.97;100.00;101944.28;5079682;28;20463;-67
2023/05/13 07:18:08;;;;;;;24.75;16.45;;;;;;;13.84;100.00;101943.28;5079903;28;20031;-75
2023/05/13 07:20:33;;;;;;;24.33;16.08;;;;;;;13.70;100.00;101941.41;5079477;28;20119;-68
2023/05/13 07:22:58;;;;;;;25.05;16.40;;;;;;;13.62;100.00;101955.50;5080845;28;20104;-68
2023/05/13 07:25:24;;;;;;;24.35;16.05;;;;;;;13.72;100.00;101952.91;5076269;28;20446;-65
2023/05/13 07:27:49;;;;;;;24.98;16.52;;;;;;;13.84;100.00;101938.84;5085303;28;20090;-66
2023/05/13 07:30:15;;;;;;;25.58;16.23;;;;;;;13.95;100.00;101939.81;5080204;28;20037;-72
2023/05/13 07:32:40;;;;;;;27.13;16.70;;;;;;;14.12;100.00;101939.03;5084603;28;20034;-71
2023/05/13 07:35:06;;;;;;;25.83;16.98;;;;;;;14.33;100.00;101933.00;5086509;28;20037;-67
2023/05/13 07:37:31;;;;;;;24.95;15.45;;;;;;;14.50;100.00;101940.16;5084460;28;20534;-69
2023/05/13 07:39:57;;;;;;;24.30;16.20;;;;;;;14.60;100.00;101942.88;5084446;28;20037;-66
2023/05/13 07:42:23;;;;;;;24.58;16.00;;;;;;;14.80;100.00;101935.03;5085699;28;20127;-67
2023/05/13 07:44:48;;;;;;;23.55;15.55;;;;;;;14.98;100.00;101949.28;5081937;28;20028;-66
2023/05/13 07:47:14;;;;;;;25.00;15.90;;;;;;;15.04;100.00;101943.09;5080067;28;20040;-70
2023/05/13 07:49:39;;;;;;;25.15;15.15;;;;;;;15.01;100.00;101956.41;5083546;28;20066;-71
2023/05/13 07:52:05;;;;;;;23.25;15.45;;;;;;;14.99;100.00;101943.97;5081563;28;20487;-66
2023/05/13 07:54:30;;;;;;;24.42;15.45;;;;;;;15.01;100.00;101953.75;5083165;28;20056;-66
2023/05/13 07:56:55;;;;;;;24.30;15.02;;;;;;;15.06;100.00;101944.00;5079415;28;20070;-71
2023/05/13 07:59:21;;;;;;;24.13;16.00;;;;;;;15.18;100.00;101952.03;5086177;28;20382;-65
2023/05/13 08:01:46;;;;;;;24.65;16.83;;;;;;;15.24;100.00;101952.03;5083228;28;20150;-66
2023/05/13 08:04:11;;;;;;;23.70;16.45;;;;;;;15.46;100.00;101947.63;5085148;28;20371;-65
2023/05/13 08:06:37;;;;;;;23.95;16.38;;;;;;;15.54;100.00;101945.00;5084246;28;20507;-68
2023/05/13 08:09:02;;;;;;;25.00;15.50;;;;;;;15.50;100.00;101961.84;5083669;28;20057;-66
2023/05/13 08:11:28;;;;;;;24.92;15.25;;;;;;;15.41;100.00;101961.84;5079260;28;20075;-67
2023/05/13 08:13:53;;;;;;;23.77;15.60;;;;;;;15.54;100.00;101953.00;5079336;28;20036;-67
2023/05/13 08:16:19;;;;;;;23.55;15.23;;;;;;;15.90;100.00;101945.03;5081975;28;20032;-67
2023/05/13 08:18:44;;;;;;;23.95;14.30;;;;;;;16.16;100.00;101958.34;5083457;28;20044;-67
2023/05/13 08:21:10;;;;;;;22.88;14.60;;;;;;;16.47;100.00;101958.28;5079306;28;20033;-67
2023/05/13 08:23:36;;;;;;;24.27;14.70;;;;;;;16.60;100.00;101956.47;5085714;28;20450;-67
2023/05/13 08:26:03;;;;;;;24.63;14.73;;;;;;;16.61;100.00;101956.47;5082135;28;20117;-67
2023/05/13 08:28:28;;;;;;;24.23;15.70;;;;;;;16.75;100.00;101956.44;5067286;28;20089;-67
2023/05/13 08:30:57;;;;;;;23.42;15.35;;;;;;;16.57;100.00;101946.69;5083028;28;20032;-67
2023/05/13 08:33:22;;;;;;;23.05;14.45;;;;;;;16.63;100.00;101956.47;5084596;28;20175;-68
2023/05/13 08:35:48;;;;;;;24.52;14.88;;;;;;;16.85;100.00;101957.28;5083563;28;20111;-68
2023/05/13 08:38:13;;;;;;;22.75;14.35;;;;;;;17.21;100.00;101953.59;5083399;28;20024;-68
2023/05/13 08:40:40;;;;;;;22.80;14.25;;;;;;;17.39;100.00;101949.91;5084798;28;20032;-67
2023/05/13 08:43:07;;;;;;;24.17;14.57;;;;;;;17.56;100.00;101944.44;5081888;28;20045;-67
2023/05/13 08:45:33;;;;;;;24.92;13.65;;;;;;;17.64;100.00;101955.06;5077097;28;20481;-69
2023/05/13 08:48:01;;;;;;;23.48;14.48;;;;;;;17.89;100.00;101965.56;5078970;28;20056;-67
2023/05/13 08:50:30;;;;;;;25.17;14.00;;;;;;;17.96;100.00;101955.75;5083109;28;20033;-69
2023/05/13 08:52:57;;;;;;;23.98;14.25;;;;;;;17.99;100.00;101956.59;5078791;28;20082;-67
2023/05/13 08:55:23;;;;;;;22.85;14.20;;;;;;;18.11;100.00;101951.16;5083458;28;20032;-69
2023/05/13 08:57:49;;;;;;;23.17;13.40;;;;;;;18.24;100.00;101951.03;5082265;28;20029;-68
2023/05/13 09:00:15;;;;;;;22.58;14.23;;;;;;;18.43;100.00;101947.22;5085148;28;20557;-69
2023/05/13 09:02:41;;;;;;;23.15;14.30;;;;;;;18.52;100.00;101948.03;5081627;28;20028;-67
2023/05/13 09:05:08;;;;;;;23.73;14.43;;;;;;;18.52;100.00;101953.41;5084528;28;20540;-67
2023/05/13 09:07:35;;;;;;;22.23;13.50;;;;;;;18.56;100.00;101947.13;5082221;28;20036;-67
2023/05/13 09:10:01;;;;;;;22.85;13.82;;;;;;;18.60;100.00;101955.09;5083654;28;20028;-69
2023/05/13 09:12:45;;;;;;;24.13;13.80;;;;;;;18.80;100.00;101951.28;5082835;28;20035;-67
2023/05/13 09:15:12;;;;;;;22.33;13.90;;;;;;;18.82;100.00;101953.03;5077490;28;20035;-67
2023/05/13 09:17:41;;;;;;;22.50;13.93;;;;;;;18.94;100.00;101953.81;5084502;28;20058;-68
2023/05/13 09:20:08;;;;;;;22.27;13.15;;;;;;;18.96;100.00;101957.34;5081748;28;20123;-67
2023/05/13 09:22:34;;;;;;;23.35;13.15;;;;;;;19.11;100.00;101950.91;5083908;28;20479;-68
2023/05/13 09:24:59;;;;;;;22.55;13.63;;;;;;;19.24;100.00;101951.66;5082808;28;20059;-67
2023/05/13 09:27:39;;;;;;;22.42;12.80;;;;;;;19.47;100.00;101952.19;5082427;28;20028;-68
2023/05/13 09:30:05;;;;;;;23.40;13.55;;;;;;;19.50;97.99;101949.44;5081716;28;20070;-69
2023/05/13 09:32:31;;;;;;;22.33;13.00;;;;;;;19.69;94.57;101943.78;5083321;28;20031;-67
2023/05/13 09:34:56;;;;;;;22.85;13.18;;;;;;;19.94;96.52;101932.69;5083008;28;20394;-66
2023/05/13 09:37:23;;;;;;;22.17;12.52;;;;;;;20.39;91.68;101935.44;5081881;28;20024;-70
2023/05/13 09:39:51;;;;;;;23.65;12.90;;;;;;;21.51;94.17;101933.94;5084202;28;20032;-66
2023/05/13 09:42:18;;;;;;;22.73;12.95;;;;;;;22.68;78.08;101940.78;5080975;28;20135;-68
2023/05/13 09:44:45;;;;;;;22.00;11.50;;;;;;;23.97;66.63;101934.03;5084288;28;20513;-65
2023/05/13 09:47:12;;;;;;;21.88;11.73;;;;;;;25.06;64.04;101937.25;5076600;28;20028;-66
2023/05/13 09:49:39;;;;;;;22.45;11.65;;;;;;;26.34;56.65;101935.56;5079704;28;20032;-68
2023/05/13 09:52:08;;;;;;;21.40;11.48;;;;;;;26.76;50.37;101937.31;5076905;28;20036;-66
2023/05/13 09:54:35;;;;;;;23.17;10.68;;;;;;;27.24;49.11;101937.75;5079189;28;20090;-70
2023/05/13 09:57:01;;;;;;;21.13;10.68;;;;;;;27.89;46.79;101934.50;5083926;28;20024;-70
2023/05/13 09:59:26;;;;;;;20.25;10.35;;;;;;;28.75;45.87;101929.13;5078183;28;20016;-69
2023/05/13 10:01:54;;;;;;;22.52;10.43;;;;;;;29.12;45.27;101935.19;5080855;28;20032;-67
2023/05/13 10:04:20;;;;;;;21.77;10.13;;;;;;;29.27;42.38;101930.75;5076808;28;20162;-80
2023/05/13 10:06:48;;;;;;;20.17;9.90;;;;;;;29.33;40.82;101935.81;5083610;28;20119;-69
2023/05/13 10:09:15;;;;;;;20.30;9.73;;;;;;;29.99;40.02;101925.63;5084779;28;20031;-69
2023/05/13 10:11:45;;;;;;;21.75;9.90;;;;;;;29.85;40.02;101921.00;5087225;28;20028;-69
2023/05/13 10:14:10;;;;;;;20.67;9.98;;;;;;;30.05;40.60;101930.69;5085965;28;20095;-67
2023/05/13 10:16:36;;;;;;;19.63;8.55;;;;;;;30.20;36.77;101921.59;5086416;28;20174;-70
2023/05/13 10:19:02;;;;;;;18.33;8.55;;;;;;;30.24;36.95;101920.41;5087546;28;20028;-69
2023/05/13 10:21:28;;;;;;;19.70;8.27;;;;;;;30.43;38.21;101920.16;5085274;28;20028;-67
2023/05/13 10:23:55;;;;;;;19.58;8.55;;;;;;;31.20;38.06;101922.53;5088039;28;20364;-69
2023/05/13 10:26:22;;;;;;;20.17;9.10;;;;;;;31.47;35.75;101918.97;5084629;28;20482;-67
2023/05/13 10:28:48;;;;;;;20.10;8.82;;;;;;;31.34;34.28;101923.47;5087808;28;20032;-69
2023/05/13 10:31:17;;;;;;;20.00;9.23;;;;;;;31.69;34.50;101914.75;5085259;28;20036;-69
2023/05/13 10:33:43;;;;;;;19.35;9.30;;;;;;;32.25;33.93;101909.97;5088927;28;20047;-70
2023/05/13 10:36:18;;;;;;;19.48;8.75;;;;;;;32.50;33.72;101916.41;5086153;28;20032;-69
2023/05/13 10:39:23;;;;;;;19.70;8.27;;;;;;;32.95;35.27;101919.53;5069326;28;20035;-67
2023/05/13 10:41:49;;;;;;;18.35;7.47;;;;;;;33.37;32.78;101919.19;5085244;28;20057;-69
2023/05/13 10:44:14;;;;;;;18.45;7.60;;;;;;;33.53;31.42;101908.81;5092706;28;20043;-69
2023/05/13 10:46:41;;;;;;;17.42;7.25;;;;;;;33.54;30.01;101912.44;5095170;28;20119;-71
2023/05/13 10:49:13;;;;;;;18.05;6.60;;;;;;;33.25;31.89;101907.31;5090338;28;20043;-70
2023/05/13 10:51:44;;;;;;;16.55;6.35;;;;;;;33.38;31.39;101909.09;5089339;28;20091;-69
2023/05/13 10:54:17;;;;;;;19.17;6.40;;;;;;;33.51;31.34;101905.31;5091858;28;20021;-68
2023/05/13 10:56:43;;;;;;;17.38;6.50;;;;;;;33.76;29.51;101903.44;5099543;28;20495;-69
2023/05/13 10:59:11;;;;;;;19.20;6.70;;;;;;;33.99;28.85;101904.38;5106586;28;20028;-67
2023/05/13 11:01:42;;;;;;;17.80;6.22;;;;;;;33.95;29.20;101899.28;5101991;28;20027;-72